createdAt,value
2022-10-22T00:01:45.735Z,4.68
2022-10-22T00:03:47.260Z,2.22
2022-10-22T00:05:48.744Z,1.55
2022-10-22T00:07:50.392Z,2.47
2022-10-22T00:09:51.865Z,3.10
2022-10-22T00:11:55.710Z,1.83
2022-10-22T00:13:57.855Z,2.85
2022-10-22T00:15:59.200Z,1.25
2022-10-22T00:18:00.583Z,1.20
2022-10-22T00:20:02.028Z,0.90
2022-10-22T00:22:05.742Z,1.33
2022-10-22T00:24:07.165Z,3.13
2022-10-22T00:26:08.689Z,1.08
2022-10-22T00:28:11.534Z,5.40
2022-10-22T00:30:13.001Z,2.00
2022-10-22T00:32:15.175Z,1.67
2022-10-22T00:34:17.388Z,2.20
2022-10-22T00:36:18.701Z,1.10
2022-10-22T00:38:20.340Z,1.77
2022-10-22T00:40:21.706Z,2.38
2022-10-22T00:42:24.731Z,2.90
2022-10-22T00:44:44.421Z,3.00
2022-10-22T00:46:45.761Z,1.05
2022-10-22T00:48:47.090Z,2.67
2022-10-22T00:50:51.579Z,2.65
2022-10-22T00:52:54.228Z,1.20
2022-10-22T00:54:56.033Z,1.58
2022-10-22T00:56:57.366Z,2.25
2022-10-22T00:59:00.536Z,4.70
2022-10-22T01:01:02.276Z,1.23
2022-10-22T01:03:03.681Z,1.48
2022-10-22T01:05:05.340Z,1.95
2022-10-22T01:07:06.691Z,1.25
2022-10-22T01:09:23.225Z,1.13
2022-10-22T01:11:24.598Z,2.00
2022-10-22T01:13:41.953Z,2.92
2022-10-22T01:16:03.078Z,1.33
2022-10-22T01:18:10.690Z,3.35
2022-10-22T01:20:30.560Z,1.05
2022-10-22T01:22:43.966Z,1.00
2022-10-22T01:24:53.151Z,1.70
2022-10-22T01:26:54.683Z,1.75
2022-10-22T01:29:05.054Z,1.40
2022-10-22T01:31:08.057Z,1.88
2022-10-22T01:33:10.948Z,1.70
2022-10-22T01:35:13.963Z,3.88
2022-10-22T01:37:15.609Z,1.50
2022-10-22T01:39:17.457Z,3.85
2022-10-22T01:41:19.072Z,3.45
2022-10-22T01:43:20.426Z,3.53
2022-10-22T01:45:21.757Z,5.00
2022-10-22T01:47:28.192Z,4.97
2022-10-22T01:50:05.193Z,5.40
2022-10-22T01:52:24.818Z,3.65
2022-10-22T01:54:39.659Z,5.82
2022-10-22T01:57:00.114Z,5.00
2022-10-22T01:59:07.397Z,5.72
2022-10-22T02:01:14.279Z,13.70
2022-10-22T02:03:24.636Z,11.63
2022-10-22T02:05:47.106Z,4.38
2022-10-22T02:07:59.433Z,5.72
2022-10-22T02:10:01.231Z,3.92
2022-10-22T02:14:05.322Z,3.55
2022-10-22T02:16:07.799Z,3.50
2022-10-22T02:18:09.775Z,3.60
2022-10-22T02:20:14.907Z,4.95
2022-10-22T02:22:16.294Z,6.25
2022-10-22T02:24:18.143Z,3.75
2022-10-22T02:26:19.437Z,3.45
2022-10-22T02:28:34.456Z,4.18
2022-10-22T02:30:36.514Z,5.15
2022-10-22T02:32:41.080Z,6.68
2022-10-22T02:34:42.673Z,6.95
2022-10-22T02:36:48.072Z,5.82
2022-10-22T02:38:52.303Z,3.28
2022-10-22T02:40:53.687Z,3.15
2022-10-22T02:42:55.008Z,5.00
2022-10-22T02:44:56.304Z,4.88
2022-10-22T02:46:58.111Z,4.28
2022-10-22T02:48:59.385Z,7.05
2022-10-22T02:51:00.763Z,3.95
2022-10-22T02:53:02.151Z,4.93
2022-10-22T02:55:04.033Z,3.70
2022-10-22T02:57:05.431Z,4.07
2022-10-22T02:59:06.773Z,6.60
2022-10-22T03:01:10.285Z,2.92
2022-10-22T03:03:13.721Z,3.60
2022-10-22T03:05:15.063Z,5.68
2022-10-22T03:07:16.668Z,5.35
2022-10-22T03:09:21.299Z,5.07
2022-10-22T03:11:25.427Z,3.58
2022-10-22T03:13:26.779Z,3.85
2022-10-22T03:17:29.373Z,5.57
2022-10-22T03:19:30.726Z,2.97
2022-10-22T03:21:35.726Z,3.95
2022-10-22T03:23:37.369Z,3.13
2022-10-22T03:25:40.097Z,7.75
2022-10-22T03:27:42.281Z,5.47
2022-10-22T03:29:44.315Z,4.82
2022-10-22T03:31:45.613Z,4.65
2022-10-22T03:33:47.003Z,3.35
2022-10-22T03:35:48.413Z,4.07
2022-10-22T03:37:50.106Z,5.22
2022-10-22T03:39:52.013Z,2.67
2022-10-22T03:41:53.530Z,4.88
2022-10-22T03:43:55.284Z,3.38
2022-10-22T03:45:56.632Z,5.60
2022-10-22T03:47:58.084Z,3.58
2022-10-22T03:49:59.405Z,4.40
2022-10-22T03:52:08.147Z,2.67
2022-10-22T03:54:09.510Z,5.25
2022-10-22T03:56:11.815Z,5.15
2022-10-22T03:58:13.136Z,2.47
2022-10-22T04:00:14.602Z,3.00
2022-10-22T04:02:15.895Z,3.35
2022-10-22T04:04:17.357Z,3.80
2022-10-22T04:06:19.065Z,3.60
2022-10-22T04:08:20.356Z,2.90
2022-10-22T04:10:21.685Z,2.83
2022-10-22T04:12:23.063Z,2.97
2022-10-22T04:14:24.482Z,2.80
2022-10-22T04:16:30.902Z,2.70
2022-10-22T04:18:32.331Z,3.00
2022-10-22T04:20:33.694Z,5.57
2022-10-22T04:22:35.575Z,4.63
2022-10-22T04:24:39.307Z,3.28
2022-10-22T04:26:41.092Z,4.65
2022-10-22T04:28:42.533Z,5.47
2022-10-22T04:30:43.839Z,2.65
2022-10-22T04:32:45.179Z,5.53
2022-10-22T04:34:46.562Z,5.18
2022-10-22T04:36:47.964Z,4.63
2022-10-22T04:38:52.987Z,3.03
2022-10-22T04:40:54.310Z,2.85
2022-10-22T04:42:56.365Z,3.05
2022-10-22T04:44:57.734Z,4.57
2022-10-22T04:46:59.430Z,5.40
2022-10-22T04:49:00.903Z,6.45
2022-10-22T04:51:02.244Z,3.97
2022-10-22T04:53:03.673Z,6.18
2022-10-22T04:55:05.346Z,5.45
2022-10-22T04:57:08.980Z,5.68
2022-10-22T04:59:12.495Z,4.57
2022-10-22T05:01:18.346Z,7.05
2022-10-22T05:03:19.749Z,4.32
2022-10-22T05:05:21.044Z,4.10
2022-10-22T05:07:23.684Z,2.72
2022-10-22T05:09:24.991Z,4.45
2022-10-22T05:11:30.616Z,3.58
2022-10-22T05:13:31.914Z,2.25
2022-10-22T05:15:33.619Z,2.10
2022-10-22T05:17:38.176Z,4.60
2022-10-22T05:19:39.696Z,4.13
2022-10-22T05:21:41.005Z,2.45
2022-10-22T05:23:42.986Z,2.67
2022-10-22T05:25:44.328Z,2.03
2022-10-22T05:27:48.783Z,2.25
2022-10-22T05:29:50.071Z,2.67
2022-10-22T05:31:51.864Z,2.63
2022-10-22T05:33:53.252Z,5.60
2022-10-22T05:35:54.649Z,3.50
2022-10-22T05:40:06.794Z,3.53
2022-10-22T05:42:19.613Z,3.85
2022-10-22T05:44:20.980Z,3.80
2022-10-22T05:46:23.274Z,2.42
2022-10-22T05:48:24.735Z,3.42
2022-10-22T05:50:26.097Z,2.80
2022-10-22T05:52:27.587Z,3.28
2022-10-22T05:54:28.986Z,4.93
2022-10-22T05:56:32.002Z,4.05
2022-10-22T05:58:33.540Z,3.90
2022-10-22T06:00:34.922Z,3.75
2022-10-22T06:02:36.332Z,7.53
2022-10-22T06:04:37.722Z,5.03
2022-10-22T06:06:42.070Z,2.03
2022-10-22T06:08:43.518Z,3.78
2022-10-22T06:10:44.920Z,5.30
2022-10-22T06:12:48.262Z,3.90
2022-10-22T06:14:49.568Z,3.35
2022-10-22T06:16:51.485Z,5.03
2022-10-22T06:18:52.808Z,4.30
2022-10-22T06:20:54.227Z,5.78
2022-10-22T06:22:55.633Z,3.50
2022-10-22T06:24:56.966Z,4.22
2022-10-22T06:26:58.323Z,5.53
2022-10-22T06:29:00.190Z,6.53
2022-10-22T06:31:02.301Z,4.20
2022-10-22T06:33:03.739Z,2.65
2022-10-22T06:35:05.324Z,3.80
2022-10-22T06:37:09.784Z,5.85
2022-10-22T06:39:12.145Z,5.03
2022-10-22T06:41:15.254Z,4.28
2022-10-22T06:43:16.712Z,3.58
2022-10-22T06:45:18.267Z,6.85
2022-10-22T06:47:19.807Z,6.43
2022-10-22T06:49:21.331Z,4.32
2022-10-22T06:51:22.994Z,5.03
2022-10-22T06:53:24.652Z,6.18
2022-10-22T06:55:26.009Z,6.28
2022-10-22T06:57:27.334Z,9.30
2022-10-22T06:59:28.688Z,5.43
2022-10-22T07:01:31.460Z,6.32
2022-10-22T07:03:33.294Z,5.43
2022-10-22T07:05:34.624Z,7.32
2022-10-22T07:07:35.981Z,7.25
2022-10-22T07:09:39.311Z,6.82
2022-10-22T07:11:42.024Z,7.47
2022-10-22T07:13:43.423Z,6.03
2022-10-22T07:15:44.863Z,6.18
2022-10-22T07:17:46.226Z,6.65
2022-10-22T07:19:49.751Z,6.28
2022-10-22T07:21:53.935Z,9.40
2022-10-22T07:23:55.556Z,7.57
2022-10-22T07:27:58.581Z,6.65
2022-10-22T07:30:01.189Z,7.47
2022-10-22T07:32:02.637Z,5.90
2022-10-22T07:34:04.010Z,7.72
2022-10-22T07:36:06.824Z,6.63
2022-10-22T07:38:08.812Z,5.88
2022-10-22T07:40:10.503Z,8.52
2022-10-22T07:42:11.923Z,9.40
2022-10-22T07:44:13.325Z,10.63
2022-10-22T07:46:14.816Z,6.90
2022-10-22T07:48:16.903Z,6.47
2022-10-22T07:50:18.402Z,7.95
2022-10-22T07:52:19.884Z,6.97
2022-10-22T07:54:21.220Z,10.65
2022-10-22T07:56:22.495Z,8.02
2022-10-22T07:58:24.142Z,8.95
2022-10-22T08:00:25.638Z,9.35
2022-10-22T08:02:27.029Z,7.80
2022-10-22T08:04:28.324Z,9.57
2022-10-22T08:06:29.697Z,8.90
2022-10-22T08:08:31.270Z,9.98
2022-10-22T08:10:33.429Z,7.32
2022-10-22T08:12:34.887Z,8.13
2022-10-22T08:14:39.261Z,7.28
2022-10-22T08:16:40.673Z,8.65
2022-10-22T08:18:42.507Z,8.30
2022-10-22T08:20:43.917Z,9.63
2022-10-22T08:22:46.771Z,5.90
2022-10-22T08:24:50.899Z,8.40
2022-10-22T08:26:54.325Z,5.53
2022-10-22T08:28:55.742Z,5.70
2022-10-22T08:30:59.258Z,5.47
2022-10-22T08:33:00.567Z,6.70
2022-10-22T08:35:02.035Z,7.40
2022-10-22T08:37:03.663Z,4.38
2022-10-22T08:39:05.072Z,5.45
2022-10-22T08:41:10.057Z,4.50
2022-10-22T08:43:16.425Z,6.03
2022-10-22T08:45:31.604Z,4.07
2022-10-22T08:47:32.913Z,6.95
2022-10-22T08:49:41.216Z,6.63
2022-10-22T08:51:43.691Z,4.18
2022-10-22T08:53:47.594Z,8.02
2022-10-22T08:55:52.006Z,3.78
2022-10-22T08:58:22.665Z,5.70
2022-10-22T09:00:36.145Z,5.07
2022-10-22T09:02:44.120Z,4.25
2022-10-22T09:04:49.220Z,2.90
2022-10-22T09:06:53.630Z,3.22
2022-10-22T09:08:57.627Z,1.95
2022-10-22T09:11:03.517Z,2.30
2022-10-22T09:13:04.957Z,3.20
2022-10-22T09:15:06.791Z,2.92
2022-10-22T09:17:17.389Z,1.58
2022-10-22T09:21:23.490Z,2.05
2022-10-22T09:23:34.008Z,1.75
2022-10-22T09:25:37.012Z,3.20
2022-10-22T09:27:38.695Z,1.95
2022-10-22T09:29:46.405Z,4.22
2022-10-22T09:31:48.471Z,2.45
2022-10-22T09:33:52.949Z,4.57
2022-10-22T09:36:05.651Z,4.82
2022-10-22T09:38:08.004Z,2.30
2022-10-22T09:40:15.036Z,3.63
2022-10-22T09:42:19.374Z,3.35
2022-10-22T09:44:21.075Z,2.72
2022-10-22T09:46:28.248Z,2.10
2022-10-22T09:48:34.369Z,2.60
2022-10-22T09:50:43.932Z,1.70
2022-10-22T09:52:48.105Z,1.40
2022-10-22T09:54:55.163Z,2.92
2022-10-22T09:56:58.156Z,1.88
2022-10-22T09:58:59.895Z,2.65
2022-10-22T10:01:16.028Z,1.55
2022-10-22T10:03:18.982Z,1.33
2022-10-22T10:05:24.941Z,2.40
2022-10-22T10:07:27.903Z,1.85
2022-10-22T10:09:31.646Z,2.83
2022-10-22T10:11:37.787Z,2.00
2022-10-22T10:13:46.269Z,2.97
2022-10-22T10:16:01.934Z,3.67
2022-10-22T10:18:03.341Z,3.80
2022-10-22T10:20:11.633Z,2.03
2022-10-22T10:22:31.720Z,3.08
2022-10-22T10:24:51.723Z,1.50
2022-10-22T10:27:05.224Z,2.30
2022-10-22T10:29:25.367Z,4.72
2022-10-22T10:31:45.691Z,3.22
2022-10-22T10:33:52.877Z,2.55
2022-10-22T10:36:03.280Z,2.00
2022-10-22T10:38:13.155Z,3.45
2022-10-22T10:40:27.105Z,1.63
2022-10-22T10:42:44.747Z,4.28
2022-10-22T10:44:52.259Z,2.17
2022-10-22T10:47:12.753Z,3.30
2022-10-22T10:49:20.937Z,2.17
2022-10-22T10:51:38.402Z,2.53
2022-10-22T10:53:45.890Z,1.63
2022-10-22T10:56:10.423Z,3.55
2022-10-22T10:58:20.021Z,2.15
2022-10-22T11:00:22.431Z,1.58
2022-10-22T11:02:23.912Z,1.02
2022-10-22T11:04:43.259Z,3.60
2022-10-22T11:06:45.116Z,2.17
2022-10-22T11:09:05.554Z,2.40
2022-10-22T11:11:24.820Z,2.92
2022-10-22T11:13:44.940Z,2.08
2022-10-22T11:15:49.014Z,3.92
2022-10-22T11:17:52.146Z,2.47
2022-10-22T11:20:00.268Z,1.85
2022-10-22T11:22:26.504Z,2.72
2022-10-22T11:24:30.578Z,2.13
2022-10-22T11:26:45.143Z,2.30
2022-10-22T11:28:49.558Z,2.33
2022-10-22T11:30:56.499Z,3.50
2022-10-22T11:33:03.184Z,2.42
2022-10-22T11:35:06.582Z,3.25
2022-10-22T11:37:10.532Z,2.30
2022-10-22T11:39:49.286Z,2.70
2022-10-22T11:41:52.832Z,2.33
2022-10-22T11:44:22.568Z,2.80
2022-10-22T11:46:23.880Z,1.95
2022-10-22T11:48:27.689Z,1.10
2022-10-22T11:50:42.230Z,1.55
2022-10-22T11:53:03.053Z,1.88
2022-10-22T11:55:24.565Z,0.95
2022-10-22T11:57:38.871Z,1.77
2022-10-22T12:00:04.479Z,2.60
2022-10-22T12:02:26.464Z,0.77
2022-10-22T12:04:40.693Z,1.85
2022-10-22T12:06:58.639Z,3.55
2022-10-22T12:09:01.718Z,1.85
2022-10-22T12:11:12.394Z,4.40
2022-10-22T12:15:29.408Z,2.35
2022-10-22T12:17:33.849Z,2.85
2022-10-22T12:19:40.882Z,2.33
2022-10-22T12:21:44.180Z,1.83
2022-10-22T12:23:46.773Z,1.05
2022-10-22T12:25:52.539Z,4.28
2022-10-22T12:28:01.071Z,1.85
2022-10-22T12:30:05.078Z,0.85
2022-10-22T12:32:06.636Z,1.40
2022-10-22T12:34:12.998Z,2.30
2022-10-22T12:36:18.077Z,1.45
2022-10-22T12:38:21.432Z,2.53
2022-10-22T12:40:30.116Z,2.17
2022-10-22T12:42:31.856Z,1.67
2022-10-22T12:44:33.442Z,5.75
2022-10-22T12:46:35.963Z,3.58
2022-10-22T12:48:39.787Z,3.13
2022-10-22T12:50:42.814Z,2.85
2022-10-22T12:52:44.407Z,2.20
2022-10-22T12:55:08.395Z,1.58
2022-10-22T12:57:12.948Z,2.20
2022-10-22T12:59:18.131Z,0.80
2022-10-22T13:01:19.998Z,1.38
2022-10-22T13:03:29.924Z,1.90
2022-10-22T13:05:38.846Z,0.90
2022-10-22T13:07:44.243Z,1.70
2022-10-22T13:09:58.213Z,1.55
2022-10-22T13:12:06.171Z,1.55
2022-10-22T13:14:27.676Z,2.38
2022-10-22T13:16:30.247Z,1.20
2022-10-22T13:18:33.233Z,2.80
2022-10-22T13:20:37.485Z,2.65
2022-10-22T13:22:39.935Z,1.27
2022-10-22T13:24:49.009Z,2.42
2022-10-22T13:26:53.214Z,1.63
2022-10-22T13:28:57.798Z,0.85
2022-10-22T13:31:00.216Z,1.20
2022-10-22T13:33:03.163Z,2.03
2022-10-22T13:35:05.000Z,1.30
2022-10-22T13:37:09.258Z,0.82
2022-10-22T13:39:17.090Z,2.65
2022-10-22T13:41:27.123Z,1.00
2022-10-22T13:43:29.851Z,1.52
2022-10-22T13:45:32.016Z,1.05
2022-10-22T13:47:33.771Z,1.55
2022-10-22T13:49:35.231Z,1.73
2022-10-22T13:51:36.644Z,2.83
2022-10-22T13:53:38.032Z,2.90
2022-10-22T13:55:39.392Z,2.28
2022-10-22T13:57:40.947Z,3.10
2022-10-22T13:59:42.274Z,1.80
2022-10-22T14:01:43.981Z,2.65
2022-10-22T14:03:46.324Z,1.58
2022-10-22T14:05:47.825Z,3.50
2022-10-22T14:07:49.319Z,1.42
2022-10-22T14:09:50.696Z,1.75
2022-10-22T14:11:52.105Z,1.20
2022-10-22T14:13:53.991Z,2.55
2022-10-22T14:15:55.374Z,2.25
2022-10-22T14:17:57.640Z,1.58
2022-10-22T14:19:59.933Z,1.63
2022-10-22T14:22:01.307Z,1.60
2022-10-22T14:24:02.897Z,2.53
2022-10-22T14:26:04.379Z,1.55
2022-10-22T14:28:05.671Z,3.22
2022-10-22T14:30:07.539Z,3.30
2022-10-22T14:32:16.223Z,2.50
2022-10-22T14:34:17.650Z,1.88
2022-10-22T14:36:19.224Z,1.77
2022-10-22T14:38:20.872Z,2.58
2022-10-22T14:40:22.266Z,1.13
2022-10-22T14:42:23.699Z,1.73
2022-10-22T14:44:25.530Z,2.00
2022-10-22T14:46:26.980Z,2.05
2022-10-22T14:48:28.378Z,1.63
2022-10-22T14:50:29.699Z,1.83
2022-10-22T14:52:31.057Z,2.90
2022-10-22T14:54:33.212Z,1.50
2022-10-22T14:56:34.584Z,3.70
2022-10-22T14:58:36.034Z,1.20
2022-10-22T15:00:37.387Z,1.73
2022-10-22T15:02:38.981Z,2.80
2022-10-22T15:04:40.545Z,2.08
2022-10-22T15:06:41.944Z,1.77
2022-10-22T15:08:44.442Z,1.83
2022-10-22T15:10:45.908Z,2.30
2022-10-22T15:12:47.309Z,3.47
2022-10-22T15:14:48.935Z,2.90
2022-10-22T15:16:50.296Z,4.32
2022-10-22T15:18:53.289Z,1.67
2022-10-22T15:20:55.579Z,2.67
2022-10-22T15:22:57.272Z,1.77
2022-10-22T15:24:58.785Z,2.05
2022-10-22T15:27:00.210Z,1.73
2022-10-22T15:29:02.321Z,2.03
2022-10-22T15:31:03.925Z,2.05
2022-10-22T15:33:05.528Z,1.20
2022-10-22T15:35:08.275Z,1.30
2022-10-22T15:37:11.167Z,3.08
2022-10-22T15:39:12.593Z,3.28
2022-10-22T15:41:13.963Z,3.15
2022-10-22T15:43:15.309Z,1.10
2022-10-22T15:45:16.762Z,1.63
2022-10-22T15:47:18.353Z,1.55
2022-10-22T15:49:19.724Z,2.85
2022-10-22T15:51:21.101Z,2.53
2022-10-22T15:53:22.479Z,3.15
2022-10-22T15:55:23.869Z,2.47
2022-10-22T15:57:25.208Z,2.88
2022-10-22T15:59:26.687Z,2.70
2022-10-22T16:01:28.225Z,3.22
2022-10-22T16:05:31.101Z,2.47
2022-10-22T16:07:32.467Z,1.55
2022-10-22T16:09:33.879Z,2.75
2022-10-22T16:11:36.217Z,3.08
2022-10-22T16:13:37.886Z,1.40
2022-10-22T16:15:39.322Z,3.33
2022-10-22T16:17:42.556Z,1.38
2022-10-22T16:19:43.882Z,2.83
2022-10-22T16:21:45.410Z,2.05
2022-10-22T16:23:47.048Z,1.88
2022-10-22T16:25:48.423Z,3.10
2022-10-22T16:27:52.404Z,2.50
2022-10-22T16:29:53.799Z,2.95
2022-10-22T16:31:55.133Z,3.15
2022-10-22T16:33:57.206Z,3.55
2022-10-22T16:35:58.962Z,2.10
2022-10-22T16:38:00.463Z,2.92
2022-10-22T16:40:04.518Z,4.80
2022-10-22T16:42:09.431Z,1.20
2022-10-22T16:44:10.860Z,4.80
2022-10-22T16:46:12.567Z,3.35
2022-10-22T16:48:13.886Z,2.80
2022-10-22T16:50:15.383Z,1.52
2022-10-22T16:52:19.006Z,1.73
2022-10-22T16:54:21.735Z,2.80
2022-10-22T16:56:23.350Z,2.25
2022-10-22T16:58:25.042Z,1.67
2022-10-22T17:00:26.361Z,4.03
2022-10-22T17:02:27.872Z,2.38
2022-10-22T17:04:29.149Z,2.25
2022-10-22T17:06:30.571Z,1.63
2022-10-22T17:08:33.907Z,3.10
2022-10-22T17:10:36.541Z,3.80
2022-10-22T17:12:37.943Z,2.63
2022-10-22T17:14:39.440Z,1.52
2022-10-22T17:16:40.859Z,2.50
2022-10-22T17:18:42.878Z,1.65
2022-10-22T17:20:44.215Z,3.55
2022-10-22T17:22:45.668Z,2.42
2022-10-22T17:24:46.960Z,2.55
2022-10-22T17:26:48.418Z,1.92
2022-10-22T17:28:50.063Z,3.33
2022-10-22T17:31:05.334Z,3.05
2022-10-22T17:33:07.352Z,2.63
2022-10-22T17:35:08.784Z,3.03
2022-10-22T17:37:10.179Z,2.45
2022-10-22T17:39:15.332Z,4.15
2022-10-22T17:41:18.452Z,2.55
2022-10-22T17:43:19.866Z,3.38
2022-10-22T17:45:21.252Z,3.05
2022-10-22T17:47:22.886Z,3.25
2022-10-22T17:49:24.261Z,6.93
2022-10-22T17:51:26.948Z,4.60
2022-10-22T17:53:29.542Z,2.63
2022-10-22T17:55:34.618Z,4.25
2022-10-22T17:57:35.919Z,3.83
2022-10-22T17:59:37.330Z,2.42
2022-10-22T18:01:43.441Z,2.65
2022-10-22T18:03:45.051Z,4.18
2022-10-22T18:05:46.565Z,2.95
2022-10-22T18:07:47.869Z,1.75
2022-10-22T18:09:49.210Z,1.83
2022-10-22T18:11:51.508Z,1.65
2022-10-22T18:13:53.812Z,1.73
2022-10-22T18:15:56.236Z,1.80
2022-10-22T18:17:57.568Z,2.00
2022-10-22T18:19:58.975Z,1.45
2022-10-22T18:22:00.658Z,2.25
2022-10-22T18:24:02.084Z,1.98
2022-10-22T18:26:07.968Z,1.17
2022-10-22T18:28:10.905Z,2.55
2022-10-22T18:30:12.526Z,4.63
2022-10-22T18:32:13.900Z,1.25
2022-10-22T18:34:17.661Z,2.35
2022-10-22T18:36:25.469Z,3.38
2022-10-22T18:38:28.965Z,2.33
2022-10-22T18:40:30.385Z,2.63
2022-10-22T18:42:33.645Z,2.92
2022-10-22T18:44:37.304Z,4.07
2022-10-22T18:46:39.747Z,2.28
2022-10-22T18:48:47.896Z,2.92
2022-10-22T18:51:12.720Z,2.78
2022-10-22T18:53:16.335Z,4.03
2022-10-22T18:55:20.272Z,3.38
2022-10-22T18:57:22.912Z,2.85
2022-10-22T18:59:25.752Z,2.75
2022-10-22T19:01:30.208Z,2.72
2022-10-22T19:03:31.742Z,3.10
2022-10-22T19:05:34.749Z,2.10
2022-10-22T19:07:41.361Z,2.40
2022-10-22T19:09:43.192Z,4.68
2022-10-22T19:11:45.143Z,2.63
2022-10-22T19:13:50.476Z,2.55
2022-10-22T19:15:55.630Z,3.28
2022-10-22T19:18:00.483Z,3.08
2022-10-22T19:20:04.743Z,3.42
2022-10-22T19:22:06.843Z,2.53
2022-10-22T19:24:08.363Z,3.00
2022-10-22T19:26:11.493Z,3.45
2022-10-22T19:28:13.053Z,4.72
2022-10-22T19:30:14.853Z,5.50
2022-10-22T19:32:19.749Z,3.28
2022-10-22T19:34:21.242Z,3.30
2022-10-22T19:36:24.313Z,4.05
2022-10-22T19:38:29.554Z,4.78
2022-10-22T19:40:31.939Z,3.60
2022-10-22T19:42:33.585Z,3.83
2022-10-22T19:44:34.981Z,6.00
2022-10-22T19:46:36.400Z,2.92
2022-10-22T19:48:38.187Z,7.90
2022-10-22T19:50:39.911Z,12.50
2022-10-22T19:52:41.370Z,3.13
2022-10-22T19:54:46.214Z,3.55
2022-10-22T19:56:48.232Z,4.07
2022-10-22T19:58:49.668Z,5.40
2022-10-22T20:00:51.134Z,12.73
2022-10-22T20:02:52.509Z,5.63
2022-10-22T20:04:53.897Z,5.55
2022-10-22T20:06:55.274Z,4.80
2022-10-22T20:08:56.889Z,4.00
2022-10-22T20:10:58.313Z,5.07
2022-10-22T20:12:59.743Z,2.60
2022-10-22T20:15:02.324Z,4.60
2022-10-22T20:17:03.608Z,4.65
2022-10-22T20:19:06.477Z,2.83
2022-10-22T20:21:08.794Z,2.58
2022-10-22T20:23:10.199Z,6.50
2022-10-22T20:25:12.080Z,4.35
2022-10-22T20:27:13.603Z,4.07
2022-10-22T20:29:15.217Z,4.90
2022-10-22T20:31:18.943Z,4.07
2022-10-22T20:33:20.271Z,2.45
2022-10-22T20:35:21.566Z,3.90
2022-10-22T20:37:25.468Z,5.45
2022-10-22T20:39:26.833Z,3.22
2022-10-22T20:41:28.361Z,4.15
2022-10-22T20:43:29.708Z,3.80
2022-10-22T20:45:31.077Z,4.63
2022-10-22T20:47:44.445Z,5.65
2022-10-22T20:51:55.826Z,5.97
2022-10-22T20:54:00.521Z,4.93
2022-10-22T20:56:04.602Z,7.97
2022-10-22T20:58:05.979Z,3.17
2022-10-22T21:00:07.850Z,7.10
2022-10-22T21:02:09.844Z,7.40
2022-10-22T21:04:11.144Z,6.45
2022-10-22T21:06:12.452Z,5.38
2022-10-22T21:08:17.417Z,5.80
2022-10-22T21:10:20.269Z,3.95
2022-10-22T21:12:21.649Z,6.50
2022-10-22T21:14:24.324Z,8.27
2022-10-22T21:16:25.731Z,7.82
2022-10-22T21:18:27.124Z,6.80
2022-10-22T21:20:28.521Z,3.33
2022-10-22T21:22:29.894Z,3.90
2022-10-22T21:24:31.260Z,7.25
2022-10-22T21:26:32.576Z,3.28
2022-10-22T21:28:35.581Z,4.90
2022-10-22T21:30:37.145Z,8.52
2022-10-22T21:32:38.573Z,4.35
2022-10-22T21:34:39.977Z,5.30
2022-10-22T21:36:41.449Z,3.72
2022-10-22T21:38:42.822Z,4.68
2022-10-22T21:40:44.137Z,4.75
2022-10-22T21:42:45.615Z,5.85
2022-10-22T21:44:47.054Z,4.28
2022-10-22T21:46:48.349Z,6.20
2022-10-22T21:48:53.903Z,4.70
2022-10-22T21:50:55.193Z,8.88
2022-10-22T21:52:56.997Z,4.97
2022-10-22T21:54:58.341Z,3.80
2022-10-22T21:56:59.716Z,7.93
2022-10-22T21:59:02.228Z,3.40
2022-10-22T22:01:04.072Z,6.72
2022-10-22T22:03:08.124Z,4.57
2022-10-22T22:05:09.593Z,4.30
2022-10-22T22:07:10.898Z,6.45
2022-10-22T22:09:12.339Z,4.18
2022-10-22T22:11:18.080Z,5.50
2022-10-22T22:13:24.769Z,4.18
2022-10-22T22:15:26.120Z,3.17
2022-10-22T22:17:27.598Z,4.53
2022-10-22T22:19:28.935Z,5.20
2022-10-22T22:21:30.584Z,4.10
2022-10-22T22:23:32.276Z,3.67
2022-10-22T22:25:34.967Z,3.33
2022-10-22T22:27:36.496Z,5.32
2022-10-22T22:29:37.979Z,4.13
2022-10-22T22:31:40.138Z,5.70
2022-10-22T22:33:41.760Z,4.05
2022-10-22T22:35:43.234Z,4.40
2022-10-22T22:37:44.682Z,3.33
2022-10-22T22:39:46.084Z,3.58
2022-10-22T22:41:47.548Z,4.28
2022-10-22T22:43:48.929Z,5.32
2022-10-22T22:45:58.408Z,2.85
2022-10-22T22:47:59.846Z,3.28
2022-10-22T22:50:01.177Z,4.35
2022-10-22T22:52:03.018Z,2.70
2022-10-22T22:54:04.424Z,4.50
2022-10-22T22:56:12.964Z,5.05
2022-10-22T22:58:14.469Z,3.53
2022-10-22T23:00:16.197Z,3.97
2022-10-22T23:02:17.576Z,3.92
2022-10-22T23:04:22.749Z,3.38
2022-10-22T23:06:25.409Z,5.15
2022-10-22T23:08:26.767Z,2.28
2022-10-22T23:10:28.119Z,4.55
2022-10-22T23:12:29.531Z,3.05
2022-10-22T23:14:30.858Z,1.63
2022-10-22T23:16:33.701Z,1.55
2022-10-22T23:18:35.396Z,3.70
2022-10-22T23:20:39.403Z,2.53
2022-10-22T23:22:41.064Z,2.20
2022-10-22T23:24:42.583Z,3.20
2022-10-22T23:26:45.336Z,2.10
2022-10-22T23:28:46.866Z,2.88
2022-10-22T23:30:48.319Z,2.75
2022-10-22T23:32:49.684Z,2.97
2022-10-22T23:34:51.082Z,2.55
2022-10-22T23:36:53.078Z,3.90
2022-10-22T23:38:54.490Z,3.00
2022-10-22T23:40:59.289Z,3.83
2022-10-22T23:43:00.755Z,5.35
2022-10-22T23:45:02.120Z,4.45
2022-10-22T23:47:03.399Z,3.70
2022-10-22T23:49:05.439Z,4.88
2022-10-22T23:51:08.006Z,1.83
2022-10-22T23:53:09.804Z,2.85
2022-10-22T23:55:11.133Z,4.03
2022-10-22T23:57:12.476Z,3.95
